createdAt,value
2023-03-02T00:00:55.463Z,2.20
2023-03-02T00:01:55.427Z,2.70
2023-03-02T00:02:55.455Z,3.60
2023-03-02T00:03:55.459Z,2.20
2023-03-02T00:04:55.359Z,1.80
2023-03-02T00:05:55.353Z,2.30
2023-03-02T00:06:55.370Z,1.60
2023-03-02T00:07:55.662Z,4.70
2023-03-02T00:08:55.326Z,2.40
2023-03-02T00:09:55.332Z,2.10
2023-03-02T00:10:55.298Z,1.40
2023-03-02T00:11:55.301Z,2.20
2023-03-02T00:12:55.317Z,4.90
2023-03-02T00:13:55.300Z,2.30
2023-03-02T00:14:55.562Z,2.20
2023-03-02T00:15:55.291Z,2.50
2023-03-02T00:16:55.242Z,2.10
2023-03-02T00:17:55.224Z,3.30
2023-03-02T00:18:55.268Z,1.90
2023-03-02T00:19:55.201Z,2.20
2023-03-02T00:20:55.260Z,1.70
2023-03-02T00:21:55.489Z,2.20
2023-03-02T00:22:55.187Z,2.00
2023-03-02T00:23:55.178Z,2.50
2023-03-02T00:24:55.200Z,2.40
2023-03-02T00:25:55.153Z,2.20
2023-03-02T00:26:55.192Z,2.00
2023-03-02T00:27:55.124Z,2.90
2023-03-02T00:28:55.406Z,4.60
2023-03-02T00:29:55.120Z,2.50
2023-03-02T00:30:55.129Z,5.30
2023-03-02T00:31:55.333Z,1.90
2023-03-02T00:32:55.091Z,2.80
2023-03-02T00:33:55.061Z,2.40
2023-03-02T00:34:55.043Z,4.40
2023-03-02T00:35:55.389Z,1.90
2023-03-02T00:36:55.092Z,2.80
2023-03-02T00:37:55.028Z,3.70
2023-03-02T00:38:55.023Z,2.20
2023-03-02T00:39:55.060Z,2.30
2023-03-02T00:40:54.997Z,4.70
2023-03-02T00:41:54.997Z,3.40
2023-03-02T00:42:55.287Z,2.90
2023-03-02T00:43:54.955Z,3.40
2023-03-02T00:44:54.944Z,4.20
2023-03-02T00:45:54.969Z,1.70
2023-03-02T00:46:54.969Z,2.60
2023-03-02T00:47:54.916Z,1.70
2023-03-02T00:48:54.968Z,3.20
2023-03-02T00:49:55.197Z,2.80
2023-03-02T00:50:54.901Z,3.50
2023-03-02T00:51:54.882Z,3.90
2023-03-02T00:52:54.885Z,1.40
2023-03-02T00:53:54.864Z,4.70
2023-03-02T00:54:54.913Z,1.20
2023-03-02T00:55:54.840Z,1.90
2023-03-02T00:56:55.112Z,3.70
2023-03-02T00:57:54.904Z,2.60
2023-03-02T00:58:54.796Z,1.80
2023-03-02T00:59:54.823Z,2.70
2023-03-02T01:00:54.819Z,1.10
2023-03-02T01:01:54.797Z,2.90
2023-03-02T01:02:54.920Z,2.50
2023-03-02T01:03:55.091Z,1.40
2023-03-02T01:04:54.757Z,2.60
2023-03-02T01:05:54.731Z,7.20
2023-03-02T01:06:54.784Z,4.10
2023-03-02T01:07:54.718Z,2.00
2023-03-02T01:08:54.718Z,1.60
2023-03-02T01:09:54.686Z,1.90
2023-03-02T01:10:54.678Z,2.20
2023-03-02T01:11:54.673Z,2.00
2023-03-02T01:12:54.703Z,4.50
2023-03-02T01:13:54.692Z,2.80
2023-03-02T01:14:54.936Z,1.50
2023-03-02T01:15:54.696Z,4.90
2023-03-02T01:16:54.638Z,1.20
2023-03-02T01:17:54.628Z,5.40
2023-03-02T01:18:54.646Z,1.90
2023-03-02T01:19:54.598Z,2.20
2023-03-02T01:20:54.584Z,2.80
2023-03-02T01:21:54.577Z,6.60
2023-03-02T01:22:54.594Z,2.40
2023-03-02T01:23:54.586Z,2.30
2023-03-02T01:24:54.580Z,2.40
2023-03-02T01:25:54.565Z,2.20
2023-03-02T01:26:54.809Z,2.10
2023-03-02T01:27:54.521Z,2.20
2023-03-02T01:28:54.520Z,4.80
2023-03-02T01:29:54.499Z,4.40
2023-03-02T01:30:54.521Z,3.90
2023-03-02T01:31:54.791Z,2.20
2023-03-02T01:32:54.463Z,2.50
2023-03-02T01:33:54.740Z,2.20
2023-03-02T01:34:54.473Z,1.50
2023-03-02T01:35:54.498Z,5.50
2023-03-02T01:36:54.471Z,1.90
2023-03-02T01:37:54.430Z,3.00
2023-03-02T01:38:54.462Z,2.70
2023-03-02T01:39:54.403Z,2.50
2023-03-02T01:40:54.680Z,2.40
2023-03-02T01:41:54.396Z,3.90
2023-03-02T01:42:54.395Z,5.50
2023-03-02T01:43:54.354Z,4.20
2023-03-02T01:44:54.346Z,1.20
2023-03-02T01:45:54.409Z,2.50
2023-03-02T01:46:54.327Z,3.30
2023-03-02T01:47:54.599Z,6.20
2023-03-02T01:48:54.405Z,3.10
2023-03-02T01:49:54.311Z,2.50
2023-03-02T01:50:54.286Z,5.00
2023-03-02T01:51:54.308Z,1.70
2023-03-02T01:52:54.272Z,2.90
2023-03-02T01:53:55.553Z,2.30
2023-03-02T01:54:54.575Z,1.80
2023-03-02T01:55:54.260Z,5.40
2023-03-02T01:56:54.226Z,1.90
2023-03-02T01:57:54.217Z,1.80
2023-03-02T01:58:54.194Z,2.50
2023-03-02T01:59:54.193Z,5.30
2023-03-02T02:00:54.341Z,3.90
2023-03-02T02:01:54.457Z,2.30
2023-03-02T02:02:54.160Z,2.40
2023-03-02T02:03:54.189Z,2.60
2023-03-02T02:04:54.156Z,2.30
2023-03-02T02:05:54.154Z,2.20
2023-03-02T02:06:54.159Z,4.00
2023-03-02T02:07:54.147Z,4.00
2023-03-02T02:08:54.399Z,1.70
2023-03-02T02:09:54.127Z,2.60
2023-03-02T02:10:54.117Z,3.20
2023-03-02T02:11:54.144Z,6.60
2023-03-02T02:12:54.129Z,2.70
2023-03-02T02:13:54.077Z,2.00
2023-03-02T02:14:54.050Z,10.60
2023-03-02T02:15:54.350Z,1.70
2023-03-02T02:16:54.153Z,4.70
2023-03-02T02:17:54.007Z,1.70
2023-03-02T02:18:54.040Z,2.10
2023-03-02T02:19:53.996Z,2.20
2023-03-02T02:20:53.973Z,2.60
2023-03-02T02:21:53.984Z,6.50
2023-03-02T02:22:54.275Z,9.00
2023-03-02T02:23:53.956Z,3.40
2023-03-02T02:24:53.977Z,2.10
2023-03-02T02:25:53.940Z,4.80
2023-03-02T02:26:53.928Z,1.50
2023-03-02T02:27:53.966Z,2.00
2023-03-02T02:28:53.912Z,5.70
2023-03-02T02:29:54.178Z,2.40
2023-03-02T02:30:53.931Z,2.50
2023-03-02T02:31:53.985Z,4.20
2023-03-02T02:32:53.912Z,1.80
2023-03-02T02:33:53.848Z,4.80
2023-03-02T02:34:53.862Z,2.40
2023-03-02T02:35:53.874Z,1.70
2023-03-02T02:36:54.196Z,3.30
2023-03-02T02:37:53.835Z,4.10
2023-03-02T02:38:53.807Z,3.40
2023-03-02T02:39:53.798Z,2.60
2023-03-02T02:40:53.785Z,2.10
2023-03-02T02:41:53.768Z,1.90
2023-03-02T02:42:53.810Z,3.90
2023-03-02T02:43:54.050Z,2.60
2023-03-02T02:44:53.795Z,3.70
2023-03-02T02:45:53.837Z,6.90
2023-03-02T02:46:53.730Z,2.50
2023-03-02T02:47:53.739Z,2.70
2023-03-02T02:48:53.749Z,2.70
2023-03-02T02:49:53.688Z,3.00
2023-03-02T02:50:53.997Z,2.40
2023-03-02T02:51:53.676Z,4.40
2023-03-02T02:52:53.650Z,2.30
2023-03-02T02:53:53.644Z,3.20
2023-03-02T02:54:53.684Z,3.20
2023-03-02T02:55:53.625Z,2.50
2023-03-02T02:56:53.648Z,4.10
2023-03-02T02:57:53.921Z,3.00
2023-03-02T02:58:53.622Z,1.50
2023-03-02T02:59:53.579Z,1.50
2023-03-02T03:00:53.649Z,6.90
2023-03-02T03:01:53.582Z,2.00
2023-03-02T03:02:53.555Z,4.40
2023-03-02T03:03:53.593Z,1.80
2023-03-02T03:04:53.818Z,1.40
2023-03-02T03:05:53.519Z,2.30
2023-03-02T03:06:53.557Z,4.20
2023-03-02T03:07:53.508Z,3.80
2023-03-02T03:08:53.516Z,1.60
2023-03-02T03:09:53.543Z,2.00
2023-03-02T03:10:53.477Z,3.60
2023-03-02T03:11:53.803Z,2.40
2023-03-02T03:12:53.492Z,2.00
2023-03-02T03:13:53.440Z,3.50
2023-03-02T03:14:53.444Z,4.00
2023-03-02T03:15:53.429Z,4.60
2023-03-02T03:16:53.455Z,2.20
2023-03-02T03:17:53.391Z,1.30
2023-03-02T03:18:53.715Z,2.80
2023-03-02T03:19:53.385Z,2.90
2023-03-02T03:20:53.376Z,2.50
2023-03-02T03:21:53.372Z,1.50
2023-03-02T03:22:53.354Z,4.60
2023-03-02T03:23:53.343Z,1.90
2023-03-02T03:24:53.380Z,4.90
2023-03-02T03:25:53.620Z,2.20
2023-03-02T03:26:53.328Z,1.60
2023-03-02T03:27:53.303Z,4.90
2023-03-02T03:28:55.343Z,6.40
2023-03-02T03:29:53.277Z,4.20
2023-03-02T03:30:53.417Z,10.40
2023-03-02T03:31:53.331Z,3.90
2023-03-02T03:32:53.556Z,2.80
2023-03-02T03:33:53.256Z,8.50
2023-03-02T03:34:53.239Z,4.00
2023-03-02T03:35:53.267Z,3.50
2023-03-02T03:36:53.273Z,6.80
2023-03-02T03:37:53.190Z,6.70
2023-03-02T03:38:53.201Z,8.00
2023-03-02T03:39:53.457Z,3.80
2023-03-02T03:40:53.201Z,7.30
2023-03-02T03:41:53.143Z,2.70
2023-03-02T03:42:53.189Z,3.10
2023-03-02T03:43:53.152Z,4.60
2023-03-02T03:44:53.138Z,6.10
2023-03-02T03:45:53.144Z,3.90
2023-03-02T03:46:53.387Z,2.90
2023-03-02T03:47:53.096Z,8.60
2023-03-02T03:48:53.186Z,4.10
2023-03-02T03:49:53.076Z,8.80
2023-03-02T03:50:53.104Z,2.00
2023-03-02T03:51:53.060Z,2.70
2023-03-02T03:52:53.038Z,6.20
2023-03-02T03:53:53.334Z,4.10
2023-03-02T03:54:53.080Z,6.10
2023-03-02T03:55:53.012Z,8.00
2023-03-02T03:56:53.010Z,2.80
2023-03-02T03:57:52.992Z,10.90
2023-03-02T03:58:53.022Z,6.00
2023-03-02T03:59:53.001Z,3.80
2023-03-02T04:00:53.285Z,5.00
2023-03-02T04:01:53.050Z,5.10
2023-03-02T04:02:53.048Z,3.40
2023-03-02T04:03:52.946Z,6.70
2023-03-02T04:04:52.924Z,6.20
2023-03-02T04:05:52.900Z,4.30
2023-03-02T04:06:53.220Z,3.90
2023-03-02T04:07:53.182Z,3.20
2023-03-02T04:08:52.882Z,7.20
2023-03-02T04:09:52.885Z,2.90
2023-03-02T04:10:52.870Z,3.80
2023-03-02T04:11:52.848Z,4.20
2023-03-02T04:12:52.868Z,3.30
2023-03-02T04:13:52.818Z,5.80
2023-03-02T04:14:53.133Z,5.50
2023-03-02T04:15:52.829Z,2.60
2023-03-02T04:16:52.825Z,7.40
2023-03-02T04:17:52.779Z,7.50
2023-03-02T04:18:52.807Z,5.10
2023-03-02T04:19:52.770Z,3.30
2023-03-02T04:20:52.780Z,2.90
2023-03-02T04:21:53.058Z,3.00
2023-03-02T04:22:52.737Z,4.40
2023-03-02T04:23:52.735Z,5.10
2023-03-02T04:24:52.766Z,6.10
2023-03-02T04:25:52.705Z,11.80
2023-03-02T04:26:52.709Z,2.10
2023-03-02T04:27:52.682Z,4.90
2023-03-02T04:28:52.956Z,6.40
2023-03-02T04:29:52.662Z,7.20
2023-03-02T04:30:52.754Z,7.70
2023-03-02T04:31:52.731Z,4.50
2023-03-02T04:32:52.677Z,8.20
2023-03-02T04:33:52.634Z,4.50
2023-03-02T04:34:52.639Z,10.10
2023-03-02T04:35:52.924Z,10.80
2023-03-02T04:36:52.688Z,8.80
2023-03-02T04:37:52.605Z,18.30
2023-03-02T04:38:52.584Z,8.30
2023-03-02T04:39:52.594Z,7.70
2023-03-02T04:40:52.569Z,5.40
2023-03-02T04:41:52.545Z,10.30
2023-03-02T04:42:52.873Z,5.90
2023-03-02T04:43:52.550Z,7.20
2023-03-02T04:44:52.534Z,4.30
2023-03-02T04:45:52.518Z,7.20
2023-03-02T04:46:52.598Z,8.30
2023-03-02T04:47:52.518Z,6.50
2023-03-02T04:48:52.535Z,6.70
2023-03-02T04:49:52.769Z,10.60
2023-03-02T04:50:52.473Z,10.40
2023-03-02T04:51:52.473Z,5.00
2023-03-02T04:52:52.457Z,9.60
2023-03-02T04:53:52.462Z,4.60
2023-03-02T04:54:52.495Z,9.20
2023-03-02T04:55:52.440Z,7.50
2023-03-02T04:56:52.698Z,7.60
2023-03-02T04:57:52.416Z,5.30
2023-03-02T04:58:52.399Z,14.40
2023-03-02T04:59:52.446Z,5.70
2023-03-02T05:00:52.437Z,4.50
2023-03-02T05:01:52.378Z,10.00
2023-03-02T05:02:52.367Z,6.30
2023-03-02T05:03:52.650Z,4.40
2023-03-02T05:04:52.411Z,5.90
2023-03-02T05:05:52.332Z,9.50
2023-03-02T05:06:52.390Z,8.20
2023-03-02T05:07:52.309Z,9.70
2023-03-02T05:08:52.285Z,3.80
2023-03-02T05:09:52.299Z,12.20
2023-03-02T05:10:52.601Z,2.90
2023-03-02T05:11:52.256Z,12.90
2023-03-02T05:12:52.339Z,6.70
2023-03-02T05:13:52.266Z,8.10
2023-03-02T05:14:52.242Z,12.60
2023-03-02T05:15:52.275Z,8.90
2023-03-02T05:16:52.225Z,5.90
2023-03-02T05:17:52.198Z,7.70
2023-03-02T05:18:52.246Z,9.50
2023-03-02T05:19:52.166Z,14.50
2023-03-02T05:20:52.221Z,9.50
2023-03-02T05:21:52.174Z,9.30
2023-03-02T05:22:52.434Z,13.40
2023-03-02T05:23:52.138Z,9.70
2023-03-02T05:24:52.174Z,6.00
2023-03-02T05:25:52.131Z,5.90
2023-03-02T05:26:52.111Z,11.10
2023-03-02T05:27:52.121Z,8.30
2023-03-02T05:28:54.039Z,5.90
2023-03-02T05:29:52.105Z,3.20
2023-03-02T05:30:52.106Z,13.80
2023-03-02T05:31:52.388Z,10.60
2023-03-02T05:32:52.121Z,8.20
2023-03-02T05:33:52.040Z,5.90
2023-03-02T05:34:52.344Z,9.90
2023-03-02T05:35:52.061Z,5.70
2023-03-02T05:36:52.054Z,8.00
2023-03-02T05:37:52.017Z,8.00
2023-03-02T05:38:52.027Z,5.90
2023-03-02T05:39:51.970Z,7.70
2023-03-02T05:40:51.978Z,6.50
2023-03-02T05:41:52.234Z,8.30
2023-03-02T05:42:51.996Z,9.30
2023-03-02T05:43:51.941Z,14.50
2023-03-02T05:44:51.932Z,11.50
2023-03-02T05:45:52.850Z,7.10
2023-03-02T05:46:51.967Z,7.20
2023-03-02T05:47:51.924Z,9.40
2023-03-02T05:48:52.220Z,5.60
2023-03-02T05:49:51.888Z,11.20
2023-03-02T05:50:51.879Z,7.70
2023-03-02T05:51:51.901Z,5.50
2023-03-02T05:52:51.866Z,13.60
2023-03-02T05:53:51.832Z,7.60
2023-03-02T05:54:51.887Z,7.80
2023-03-02T05:55:52.090Z,8.00
2023-03-02T05:56:51.804Z,5.80
2023-03-02T05:57:51.843Z,13.60
2023-03-02T05:58:51.838Z,6.30
2023-03-02T05:59:51.810Z,6.90
2023-03-02T06:00:51.812Z,7.50
2023-03-02T06:01:51.774Z,7.00
2023-03-02T06:02:52.070Z,14.40
2023-03-02T06:03:51.746Z,9.30
2023-03-02T06:04:51.717Z,16.80
2023-03-02T06:05:51.715Z,7.60
2023-03-02T06:06:51.770Z,4.40
2023-03-02T06:07:51.719Z,5.80
2023-03-02T06:08:51.725Z,6.60
2023-03-02T06:09:51.974Z,3.10
2023-03-02T06:10:51.681Z,5.80
2023-03-02T06:11:51.693Z,6.20
2023-03-02T06:12:52.460Z,5.10
2023-03-02T06:13:51.632Z,4.80
2023-03-02T06:14:51.627Z,10.20
2023-03-02T06:15:51.608Z,7.40
2023-03-02T06:16:51.958Z,5.80
2023-03-02T06:17:51.588Z,6.30
2023-03-02T06:18:51.634Z,9.40
2023-03-02T06:19:51.560Z,3.50
2023-03-02T06:20:51.587Z,3.40
2023-03-02T06:21:51.568Z,3.60
2023-03-02T06:22:51.589Z,5.20
2023-03-02T06:23:51.529Z,11.70
2023-03-02T06:24:51.577Z,5.00
2023-03-02T06:25:51.513Z,7.00
2023-03-02T06:26:51.500Z,5.90
2023-03-02T06:27:51.574Z,10.30
2023-03-02T06:28:53.784Z,16.30
2023-03-02T06:29:51.792Z,4.30
2023-03-02T06:30:51.544Z,6.90
2023-03-02T06:31:51.605Z,9.30
2023-03-02T06:32:51.560Z,6.00
2023-03-02T06:33:51.438Z,6.00
2023-03-02T06:34:51.444Z,3.70
2023-03-02T06:35:51.583Z,6.80
2023-03-02T06:36:51.829Z,5.90
2023-03-02T06:37:51.458Z,4.40
2023-03-02T06:38:51.387Z,8.60
2023-03-02T06:39:51.426Z,8.30
2023-03-02T06:40:51.383Z,8.50
2023-03-02T06:41:51.351Z,7.20
2023-03-02T06:42:51.389Z,6.40
2023-03-02T06:43:51.617Z,7.30
2023-03-02T06:44:51.372Z,8.20
2023-03-02T06:45:51.404Z,8.40
2023-03-02T06:46:51.305Z,4.60
2023-03-02T06:47:51.303Z,5.90
2023-03-02T06:48:51.340Z,5.20
2023-03-02T06:49:51.273Z,7.50
2023-03-02T06:50:51.553Z,4.10
2023-03-02T06:51:51.254Z,4.50
2023-03-02T06:52:51.244Z,5.10
2023-03-02T06:53:51.243Z,4.30
2023-03-02T06:54:51.299Z,5.40
2023-03-02T06:55:51.218Z,3.00
2023-03-02T06:56:51.197Z,3.80
2023-03-02T06:57:51.482Z,3.30
2023-03-02T06:58:51.180Z,6.50
2023-03-02T06:59:51.246Z,5.90
2023-03-02T07:00:51.219Z,4.80
2023-03-02T07:01:51.192Z,7.10
2023-03-02T07:02:51.145Z,12.50
2023-03-02T07:03:51.181Z,7.50
2023-03-02T07:04:51.431Z,6.90
2023-03-02T07:05:51.101Z,5.20
2023-03-02T07:06:51.155Z,6.00
2023-03-02T07:07:51.110Z,5.60
2023-03-02T07:08:51.113Z,5.00
2023-03-02T07:09:51.078Z,6.10
2023-03-02T07:10:51.107Z,6.10
2023-03-02T07:11:51.341Z,11.20
2023-03-02T07:12:51.358Z,9.20
2023-03-02T07:13:51.687Z,6.00
2023-03-02T07:14:51.041Z,14.50
2023-03-02T07:15:51.021Z,8.00
2023-03-02T07:16:51.000Z,6.60
2023-03-02T07:17:51.014Z,6.70
2023-03-02T07:18:51.350Z,3.50
2023-03-02T07:19:50.994Z,5.20
2023-03-02T07:20:50.985Z,6.60
2023-03-02T07:21:50.939Z,8.00
2023-03-02T07:22:50.963Z,7.80
2023-03-02T07:23:50.944Z,5.80
2023-03-02T07:24:50.974Z,9.70
2023-03-02T07:25:51.180Z,3.40
2023-03-02T07:26:50.911Z,5.50
2023-03-02T07:27:50.906Z,4.50
2023-03-02T07:28:50.870Z,6.80
2023-03-02T07:29:50.862Z,8.00
2023-03-02T07:30:50.982Z,6.20
2023-03-02T07:31:50.854Z,9.60
2023-03-02T07:32:51.116Z,8.80
2023-03-02T07:33:50.865Z,5.00
2023-03-02T07:34:50.847Z,4.30
2023-03-02T07:35:50.862Z,7.40
2023-03-02T07:36:50.831Z,6.60
2023-03-02T07:37:50.819Z,16.70
2023-03-02T07:38:50.778Z,14.70
2023-03-02T07:39:51.081Z,10.70
2023-03-02T07:40:50.740Z,13.60
2023-03-02T07:41:50.756Z,17.20
2023-03-02T07:42:50.770Z,15.20
2023-03-02T07:43:50.734Z,15.10
2023-03-02T07:44:50.750Z,12.40
2023-03-02T07:45:50.727Z,14.10
2023-03-02T07:46:51.045Z,12.10
2023-03-02T07:47:50.691Z,14.30
2023-03-02T07:48:50.707Z,9.90
2023-03-02T07:49:50.671Z,13.30
2023-03-02T07:50:50.646Z,13.20
2023-03-02T07:51:50.650Z,17.70
2023-03-02T07:52:50.683Z,15.50
2023-03-02T07:53:50.918Z,15.90
2023-03-02T07:54:50.764Z,15.00
2023-03-02T07:55:50.609Z,12.70
2023-03-02T07:56:50.600Z,14.00
2023-03-02T07:57:50.603Z,11.90
2023-03-02T07:58:50.576Z,12.40
2023-03-02T07:59:50.563Z,15.20
2023-03-02T08:00:50.598Z,16.00
2023-03-02T08:01:50.554Z,14.90
2023-03-02T08:02:50.590Z,10.00
2023-03-02T08:03:50.539Z,13.30
2023-03-02T08:04:50.511Z,14.40
2023-03-02T08:05:50.509Z,13.50
2023-03-02T08:06:53.950Z,16.80
2023-03-02T08:07:50.493Z,13.90
2023-03-02T08:08:50.462Z,10.00
2023-03-02T08:09:50.457Z,11.30
2023-03-02T08:10:50.478Z,14.10
2023-03-02T08:11:50.455Z,16.70
2023-03-02T08:12:50.465Z,13.00
2023-03-02T08:13:50.462Z,10.20
2023-03-02T08:14:50.432Z,14.50
2023-03-02T08:15:50.442Z,13.30
2023-03-02T08:16:50.422Z,11.50
2023-03-02T08:17:50.395Z,11.10
2023-03-02T08:18:50.424Z,11.40
2023-03-02T08:19:50.391Z,12.40
2023-03-02T08:20:50.354Z,13.90
2023-03-02T08:21:50.329Z,10.10
2023-03-02T08:22:50.384Z,10.60
2023-03-02T08:23:50.536Z,11.60
2023-03-02T08:24:50.768Z,12.70
2023-03-02T08:25:50.297Z,11.10
2023-03-02T08:26:50.335Z,11.60
2023-03-02T08:27:50.296Z,12.40
2023-03-02T08:28:50.288Z,13.20
2023-03-02T08:29:50.262Z,12.00
2023-03-02T08:30:50.337Z,11.30
2023-03-02T08:31:50.755Z,11.30
2023-03-02T08:32:50.323Z,17.90
2023-03-02T08:33:50.242Z,14.10
2023-03-02T08:34:50.201Z,11.90
2023-03-02T08:35:52.705Z,10.50
2023-03-02T08:36:50.256Z,12.60
2023-03-02T08:37:50.177Z,12.60
2023-03-02T08:38:50.526Z,13.50
2023-03-02T08:39:50.151Z,18.50
2023-03-02T08:40:50.164Z,11.70
2023-03-02T08:41:50.202Z,13.30
2023-03-02T08:42:50.181Z,10.30
2023-03-02T08:43:50.132Z,9.90
2023-03-02T08:44:50.118Z,10.40
2023-03-02T08:45:50.176Z,13.50
2023-03-02T08:46:50.079Z,12.40
2023-03-02T08:47:50.847Z,12.90
2023-03-02T08:48:50.113Z,12.90
2023-03-02T08:49:50.083Z,15.60
2023-03-02T08:50:50.035Z,9.50
2023-03-02T08:51:50.313Z,9.10
2023-03-02T08:52:50.003Z,16.60
2023-03-02T08:53:50.030Z,14.40
2023-03-02T08:54:50.170Z,9.40
2023-03-02T08:55:49.986Z,12.80
2023-03-02T08:56:49.999Z,11.00
2023-03-02T08:57:49.981Z,9.70
2023-03-02T08:58:49.955Z,10.80
2023-03-02T08:59:49.952Z,10.50
2023-03-02T09:00:49.993Z,15.60
2023-03-02T09:01:50.023Z,13.50
2023-03-02T09:02:49.933Z,11.00
2023-03-02T09:03:49.973Z,10.50
2023-03-02T09:04:49.978Z,11.30
2023-03-02T09:05:49.908Z,12.60
2023-03-02T09:06:49.934Z,10.80
2023-03-02T09:07:49.845Z,15.70
2023-03-02T09:08:49.858Z,13.90
2023-03-02T09:09:49.863Z,11.60
2023-03-02T09:10:50.128Z,12.00
2023-03-02T09:11:49.814Z,14.60
2023-03-02T09:12:49.829Z,13.90
2023-03-02T09:13:49.772Z,10.80
2023-03-02T09:14:49.803Z,13.00
2023-03-02T09:15:49.852Z,12.60
2023-03-02T09:16:49.883Z,12.00
2023-03-02T09:17:49.773Z,11.70
2023-03-02T09:18:49.806Z,10.20
2023-03-02T09:19:49.742Z,12.70
2023-03-02T09:20:49.715Z,12.00
2023-03-02T09:21:49.698Z,10.60
2023-03-02T09:22:49.993Z,12.10
2023-03-02T09:23:49.674Z,14.40
2023-03-02T09:24:49.732Z,11.30
2023-03-02T09:25:49.665Z,8.30
2023-03-02T09:26:49.676Z,11.90
2023-03-02T09:27:49.660Z,10.60
2023-03-02T09:28:49.646Z,10.10
2023-03-02T09:29:49.641Z,10.40
2023-03-02T09:30:49.642Z,10.40
2023-03-02T09:31:49.665Z,13.60
2023-03-02T09:32:49.783Z,13.40
2023-03-02T09:33:49.587Z,12.70
2023-03-02T09:34:49.609Z,13.50
2023-03-02T09:35:49.579Z,12.80
2023-03-02T09:36:49.605Z,9.30
2023-03-02T09:37:49.652Z,14.60
2023-03-02T09:38:49.567Z,7.70
2023-03-02T09:39:49.584Z,8.60
2023-03-02T09:40:49.788Z,9.80
2023-03-02T09:41:49.504Z,15.50
2023-03-02T09:42:49.525Z,11.50
2023-03-02T09:43:50.344Z,13.10
2023-03-02T09:44:49.463Z,12.60
2023-03-02T09:45:49.527Z,12.10
2023-03-02T09:46:49.492Z,11.00
2023-03-02T09:47:49.731Z,9.80
2023-03-02T09:48:49.495Z,9.70
2023-03-02T09:49:49.407Z,8.90
2023-03-02T09:50:49.378Z,9.10
2023-03-02T09:51:49.392Z,11.00
2023-03-02T09:52:49.376Z,11.50
2023-03-02T09:53:49.365Z,10.00
2023-03-02T09:54:49.768Z,11.60
2023-03-02T09:55:49.367Z,11.80
2023-03-02T09:56:49.369Z,9.30
2023-03-02T09:57:49.356Z,10.00
2023-03-02T09:58:49.336Z,9.70
2023-03-02T09:59:49.364Z,7.00
2023-03-02T10:00:49.351Z,8.70
2023-03-02T10:01:49.661Z,8.20
2023-03-02T10:02:49.403Z,11.00
2023-03-02T10:03:49.401Z,9.10
2023-03-02T10:04:49.484Z,12.10
2023-03-02T10:05:49.303Z,9.60
2023-03-02T10:06:49.266Z,11.00
2023-03-02T10:07:49.238Z,8.30
2023-03-02T10:08:49.474Z,9.10
2023-03-02T10:09:49.213Z,8.50
2023-03-02T10:10:49.186Z,10.20
2023-03-02T10:11:49.205Z,11.80
2023-03-02T10:12:49.256Z,10.90
2023-03-02T10:13:49.160Z,10.30
2023-03-02T10:14:49.148Z,7.50
2023-03-02T10:15:49.435Z,9.90
2023-03-02T10:16:49.108Z,8.30
2023-03-02T10:17:49.138Z,10.90
2023-03-02T10:18:49.140Z,11.60
2023-03-02T10:19:49.133Z,8.30
2023-03-02T10:20:49.069Z,10.90
2023-03-02T10:21:49.089Z,7.80
2023-03-02T10:22:49.369Z,6.40
2023-03-02T10:23:49.035Z,5.60
2023-03-02T10:24:49.071Z,7.60
2023-03-02T10:25:49.054Z,12.00
2023-03-02T10:26:49.033Z,6.90
2023-03-02T10:27:49.046Z,8.50
2023-03-02T10:28:48.985Z,10.20
2023-03-02T10:29:49.278Z,8.20
2023-03-02T10:30:49.079Z,9.10
2023-03-02T10:31:48.965Z,9.20
2023-03-02T10:32:48.986Z,5.90
2023-03-02T10:33:48.947Z,7.40
2023-03-02T10:34:48.926Z,6.40
2023-03-02T10:35:48.992Z,6.90
2023-03-02T10:36:49.303Z,6.40
2023-03-02T10:37:48.904Z,6.50
2023-03-02T10:38:48.906Z,12.70
2023-03-02T10:39:48.859Z,8.10
2023-03-02T10:40:48.868Z,9.00
2023-03-02T10:41:48.876Z,6.60
2023-03-02T10:42:48.926Z,9.00
2023-03-02T10:43:49.148Z,6.80
2023-03-02T10:44:48.862Z,10.70
2023-03-02T10:45:48.847Z,6.50
2023-03-02T10:46:48.882Z,8.10
2023-03-02T10:47:48.783Z,6.40
2023-03-02T10:48:50.073Z,8.70
2023-03-02T10:49:48.802Z,7.80
2023-03-02T10:50:49.049Z,7.00
2023-03-02T10:51:48.729Z,4.60
2023-03-02T10:52:59.794Z,7.30
2023-03-02T10:53:48.735Z,7.20
2023-03-02T10:54:48.750Z,6.60
2023-03-02T10:55:48.710Z,8.30
2023-03-02T10:56:48.754Z,7.00
2023-03-02T10:57:48.992Z,6.20
2023-03-02T10:58:48.667Z,7.60
2023-03-02T10:59:48.656Z,8.20
2023-03-02T11:00:48.697Z,8.40
2023-03-02T11:01:48.668Z,6.90
2023-03-02T11:02:48.643Z,6.80
2023-03-02T11:03:48.612Z,5.50
2023-03-02T11:04:48.642Z,5.40
2023-03-02T11:05:48.633Z,6.10
2023-03-02T11:06:48.636Z,6.30
2023-03-02T11:07:48.580Z,7.30
2023-03-02T11:08:48.547Z,7.10
2023-03-02T11:09:48.555Z,7.70
2023-03-02T11:10:48.883Z,9.10
2023-03-02T11:11:48.605Z,6.00
2023-03-02T11:12:48.629Z,6.50
2023-03-02T11:13:48.484Z,6.70
2023-03-02T11:14:48.484Z,8.40
2023-03-02T11:15:48.572Z,10.10
2023-03-02T11:16:48.495Z,6.10
2023-03-02T11:17:48.451Z,7.90
2023-03-02T11:18:48.469Z,8.40
2023-03-02T11:19:48.420Z,7.70
2023-03-02T11:20:48.424Z,9.50
2023-03-02T11:21:48.425Z,9.40
2023-03-02T11:22:48.385Z,7.10
2023-03-02T11:23:48.389Z,5.80
2023-03-02T11:24:48.463Z,9.10
2023-03-02T11:25:48.424Z,7.80
2023-03-02T11:26:48.407Z,8.30
2023-03-02T11:27:48.418Z,6.20
2023-03-02T11:28:48.636Z,8.10
2023-03-02T11:29:48.355Z,7.40
2023-03-02T11:30:48.426Z,6.90
2023-03-02T11:31:48.478Z,5.80
2023-03-02T11:32:48.438Z,9.20
2023-03-02T11:33:48.370Z,7.60
2023-03-02T11:34:48.338Z,9.10
2023-03-02T11:35:48.546Z,9.40
2023-03-02T11:36:48.337Z,5.90
2023-03-02T11:37:48.326Z,7.40
2023-03-02T11:38:48.250Z,8.40
2023-03-02T11:39:55.113Z,7.70
2023-03-02T11:40:48.246Z,8.90
2023-03-02T11:41:48.217Z,6.70
2023-03-02T11:42:48.571Z,5.90
2023-03-02T11:43:48.166Z,8.10
2023-03-02T11:44:48.211Z,7.10
2023-03-02T11:45:48.168Z,6.60
2023-03-02T11:46:48.231Z,8.60
2023-03-02T11:47:54.295Z,7.60
2023-03-02T11:48:48.157Z,9.10
2023-03-02T11:49:48.101Z,6.80
2023-03-02T11:50:48.122Z,8.50
2023-03-02T11:51:57.903Z,11.60
2023-03-02T11:52:48.097Z,9.50
2023-03-02T11:53:48.179Z,9.30
2023-03-02T11:54:48.153Z,7.30
2023-03-02T11:55:48.510Z,8.20
2023-03-02T11:56:48.057Z,11.10
2023-03-02T11:57:48.019Z,11.60
2023-03-02T11:58:48.029Z,10.20
2023-03-02T11:59:47.990Z,9.00
2023-03-02T12:00:48.043Z,8.90
2023-03-02T12:01:48.050Z,10.60
2023-03-02T12:02:47.962Z,10.70
2023-03-02T12:03:47.970Z,9.30
2023-03-02T12:04:47.980Z,10.40
2023-03-02T12:05:47.996Z,9.20
2023-03-02T12:06:48.000Z,9.80
2023-03-02T12:07:47.944Z,8.90
2023-03-02T12:08:48.275Z,11.00
2023-03-02T12:09:47.894Z,9.30
2023-03-02T12:10:47.888Z,9.80
2023-03-02T12:11:47.864Z,9.80
2023-03-02T12:12:47.901Z,9.40
2023-03-02T12:13:47.855Z,10.40
2023-03-02T12:14:47.906Z,10.40
2023-03-02T12:15:48.193Z,8.30
2023-03-02T12:16:47.883Z,8.10
2023-03-02T12:17:47.877Z,8.60
2023-03-02T12:18:47.877Z,11.60
2023-03-02T12:19:47.786Z,12.50
2023-03-02T12:20:47.820Z,8.20
2023-03-02T12:21:47.760Z,10.40
2023-03-02T12:22:48.067Z,8.90
2023-03-02T12:23:47.782Z,10.40
2023-03-02T12:24:47.818Z,10.20
2023-03-02T12:25:47.780Z,11.10
2023-03-02T12:26:47.700Z,11.20
2023-03-02T12:27:47.691Z,7.80
2023-03-02T12:28:47.688Z,6.60
2023-03-02T12:29:48.761Z,5.60
2023-03-02T12:30:47.784Z,8.40
2023-03-02T12:31:47.745Z,7.00
2023-03-02T12:32:47.647Z,5.80
2023-03-02T12:33:47.668Z,6.70
2023-03-02T12:34:47.681Z,6.40
2023-03-02T12:35:47.633Z,10.00
2023-03-02T12:36:47.807Z,13.10
2023-03-02T12:37:47.609Z,9.20
2023-03-02T12:38:47.629Z,7.10
2023-03-02T12:39:47.584Z,13.80
2023-03-02T12:40:47.608Z,8.90
2023-03-02T12:41:47.594Z,8.70
2023-03-02T12:42:47.904Z,8.40
2023-03-02T12:43:47.565Z,7.60
2023-03-02T12:44:47.616Z,9.30
2023-03-02T12:45:47.595Z,8.60
2023-03-02T12:46:47.553Z,5.80
2023-03-02T12:47:48.168Z,10.50
2023-03-02T12:48:48.430Z,8.00
2023-03-02T12:49:47.755Z,10.40
2023-03-02T12:50:47.470Z,8.00
2023-03-02T12:51:47.608Z,8.80
2023-03-02T12:52:47.443Z,5.60
2023-03-02T12:53:47.420Z,9.00
2023-03-02T12:54:47.506Z,5.80
2023-03-02T12:55:47.518Z,8.40
2023-03-02T12:56:47.704Z,7.00
2023-03-02T12:57:47.397Z,6.10
2023-03-02T12:58:47.460Z,7.50
2023-03-02T12:59:47.381Z,6.60
2023-03-02T13:00:47.453Z,7.40
2023-03-02T13:01:47.523Z,8.90
2023-03-02T13:02:47.479Z,10.00
2023-03-02T13:03:47.376Z,6.60
2023-03-02T13:04:47.312Z,9.00
2023-03-02T13:05:47.373Z,5.50
2023-03-02T13:06:47.353Z,11.20
2023-03-02T13:07:47.307Z,7.20
2023-03-02T13:08:47.365Z,7.80
2023-03-02T13:09:56.268Z,10.90
2023-03-02T13:10:47.297Z,7.60
2023-03-02T13:11:47.241Z,7.30